KFFO/FFO METAR and TAF weather

Enter ICAO airport designator
Station Type Date Time Source
KFFO METAR 2022/01/25 04:07 UTC NOAA

KFFO 250407Z 30011KT 6SM -FZDZ BR BKN009 BKN024 OVC029 M01/M03 A2983 RMK AO2A CIG 009V024 BKN009 V SCT SLP114


Station Type Date Time Source
KFFO Decoded METAR 2022/01/25 04:07 UTC NOAA

Dayton / Wright-Patterson Air Force Base, OH, United States (KFFO) 39-50N 084-03W 251M
Jan 24, 2022 - 11:07 PM EST / 2022.01.25 0407 UTC
Wind: from the WNW (300 degrees) at 13 MPH (11 KT):0
Visibility: 6 mile(s):0
Sky conditions: overcast
Weather: light freezing drizzle; mist
Temperature: 30 F (-1 C)
Windchill: 19 F (-7 C):1
Dew Point: 26 F (-3 C)
Relative Humidity: 86%
Pressure (altimeter): 29.83 in. Hg (1010 hPa)
ob: KFFO 250407Z 30011KT 6SM -FZDZ BR BKN009 BKN024 OVC029 M01/M03 A2983 RMK AO2A CIG 009V024 BKN009 V SCT SLP114
cycle: 4

Station Type Date Time Source
KFFO TAF 2022/01/25 04:24 UTC NOAA

TAF TAF
AMD KFFO 250410Z 2504/2609 30012KT 8000 BR BKN007 OVC020 650075 QNH2979INS
TEMPO 2504/2506 30010G15KT 4800 -FZDZ BR BKN010 660001 650106
BECMG 2505/2507 32009KT 9999 NSW BKN015 620152 QNH2991INS
BECMG 2514/2515 31009KT 9999 SCT015 QNH3013INS
BECMG 2601/2602 30009KT 9999 FEW180 QNH3023INS TXM01/2504Z TNM11/2512Z

Example: see airport list